Time;durP1;ratioP1;P1;durP2;ratioP2;P2;SDS_P1;SDS_P2;PMS_P1;PMS_P2;Temp;Humidity;BMP_temperature;BMP_pressure;BME280_temperature;BME280_humidity;BME280_pressure;Samples;Min_cycle;Max_cycle;Signal;HPM_P1;HPM_P2
2023/06/09 00:00:45;;;;;;;5.10;4.60;;;;;;;;;;4912868;29;20210;-74
2023/06/09 00:03:12;;;;;;;5.37;4.80;;;;;;;;;;4918507;29;20898;-74
2023/06/09 00:05:40;;;;;;;5.13;4.63;;;;;;;;;;4921225;29;20225;-75
2023/06/09 00:08:06;;;;;;;5.33;4.57;;;;;;;;;;4922704;29;20552;-74
2023/06/09 00:10:32;;;;;;;5.80;4.73;;;;;;;;;;4928858;29;20243;-74
2023/06/09 00:12:59;;;;;;;4.87;4.47;;;;;;;;;;4927963;29;20754;-74
2023/06/09 00:15:25;;;;;;;5.63;4.53;;;;;;;;;;4923358;29;20232;-74
2023/06/09 00:17:53;;;;;;;4.80;4.40;;;;;;;;;;4920128;29;20183;-74
2023/06/09 00:20:20;;;;;;;5.00;4.53;;;;;;;;;;4916110;29;20209;-74
2023/06/09 00:22:48;;;;;;;5.23;4.60;;;;;;;;;;4924961;29;20182;-74
2023/06/09 00:25:15;;;;;;;5.50;5.00;;;;;;;;;;4921750;29;20187;-74
2023/06/09 00:27:45;;;;;;;5.13;4.70;;;;;;;;;;4927855;29;20189;-74
2023/06/09 00:30:13;;;;;;;6.07;4.67;;;;;;;;;;4933219;28;20657;-74
2023/06/09 00:32:41;;;;;;;5.97;5.07;;;;;;;;;;4932495;29;20225;-74
2023/06/09 00:35:07;;;;;;;5.47;4.97;;;;;;;;;;4933349;29;20645;-75
2023/06/09 00:37:34;;;;;;;5.00;4.60;;;;;;;;;;4933187;29;20272;-75
2023/06/09 00:40:01;;;;;;;5.60;5.10;;;;;;;;;;4924634;29;20213;-74
2023/06/09 00:42:30;;;;;;;6.00;5.03;;;;;;;;;;4931965;29;20697;-75
2023/06/09 00:44:56;;;;;;;6.00;5.23;;;;;;;;;;4932145;29;20225;-74
2023/06/09 00:47:22;;;;;;;7.13;5.90;;;;;;;;;;4935038;29;20277;-74
2023/06/09 00:49:48;;;;;;;5.40;4.90;;;;;;;;;;4935255;29;20182;-74
2023/06/09 00:52:15;;;;;;;10.13;5.70;;;;;;;;;;4921579;29;20202;-74
2023/06/09 00:54:41;;;;;;;5.27;4.77;;;;;;;;;;4934754;29;20185;-73
2023/06/09 00:57:08;;;;;;;5.43;4.93;;;;;;;;;;4912238;29;20183;-75
2023/06/09 00:59:35;;;;;;;7.23;5.90;;;;;;;;;;4931163;29;20174;-75
2023/06/09 01:02:03;;;;;;;5.67;5.13;;;;;;;;;;4934711;29;20210;-74
2023/06/09 01:04:32;;;;;;;6.37;5.23;;;;;;;;;;4918808;29;20250;-74
2023/06/09 01:07:08;;;;;;;5.60;5.03;;;;;;;;;;4921397;29;20684;-74
2023/06/09 01:09:43;;;;;;;6.50;5.23;;;;;;;;;;4936302;29;20529;-74
2023/06/09 01:12:12;;;;;;;6.90;5.20;;;;;;;;;;4934747;29;20217;-74
2023/06/09 01:14:47;;;;;;;7.63;5.20;;;;;;;;;;4934304;29;20197;-74
2023/06/09 01:17:16;;;;;;;5.67;5.17;;;;;;;;;;4919257;29;20194;-74
2023/06/09 01:19:44;;;;;;;5.60;5.10;;;;;;;;;;4920948;29;20182;-73
2023/06/09 01:22:21;;;;;;;5.93;5.33;;;;;;;;;;4935514;29;20544;-74
2023/06/09 01:25:03;;;;;;;5.57;5.00;;;;;;;;;;4935042;29;20174;-74
2023/06/09 01:27:29;;;;;;;6.63;5.87;;;;;;;;;;4928847;29;20217;-74
2023/06/09 01:29:58;;;;;;;7.33;5.50;;;;;;;;;;4932296;29;20253;-74
2023/06/09 01:32:25;;;;;;;8.73;5.60;;;;;;;;;;4934624;29;20206;-74
2023/06/09 01:34:52;;;;;;;5.53;5.03;;;;;;;;;;4927416;29;20193;-74
2023/06/09 01:37:19;;;;;;;7.20;5.63;;;;;;;;;;4932343;29;20210;-73
2023/06/09 01:39:46;;;;;;;6.80;5.93;;;;;;;;;;4932029;29;20268;-74
2023/06/09 01:42:12;;;;;;;7.63;5.63;;;;;;;;;;4922278;29;20210;-74
2023/06/09 01:44:38;;;;;;;6.73;5.47;;;;;;;;;;4920697;29;20206;-74
2023/06/09 01:47:06;;;;;;;5.43;4.93;;;;;;;;;;4928072;29;20196;-73
2023/06/09 01:49:33;;;;;;;6.50;5.90;;;;;;;;;;4930474;29;20279;-74
2023/06/09 01:51:59;;;;;;;6.87;5.70;;;;;;;;;;4923935;29;20590;-74
2023/06/09 01:54:32;;;;;;;7.90;6.37;;;;;;;;;;4921392;29;20269;-74
2023/06/09 01:57:03;;;;;;;9.23;7.57;;;;;;;;;;4927496;29;20190;-74
2023/06/09 01:59:34;;;;;;;8.60;7.73;;;;;;;;;;4932945;29;20261;-74
2023/06/09 02:02:01;;;;;;;8.40;7.70;;;;;;;;;;4912902;29;20228;-74
2023/06/09 02:04:28;;;;;;;8.00;7.20;;;;;;;;;;4931886;29;20198;-74
2023/06/09 02:06:54;;;;;;;8.30;7.20;;;;;;;;;;4932340;29;20193;-74
2023/06/09 02:09:21;;;;;;;8.53;7.67;;;;;;;;;;4918652;29;20197;-74
2023/06/09 02:11:51;;;;;;;8.67;7.80;;;;;;;;;;4918432;29;20233;-74
2023/06/09 02:14:17;;;;;;;8.77;7.47;;;;;;;;;;4924981;29;20543;-74
2023/06/09 02:16:44;;;;;;;9.30;7.87;;;;;;;;;;4941956;28;20673;-74
2023/06/09 02:19:12;;;;;;;10.27;8.53;;;;;;;;;;4905416;29;20320;-74
2023/06/09 02:21:38;;;;;;;11.57;10.20;;;;;;;;;;4930360;29;20282;-74
2023/06/09 02:24:05;;;;;;;12.23;9.97;;;;;;;;;;4914996;29;20673;-73
2023/06/09 02:26:34;;;;;;;10.80;9.70;;;;;;;;;;4928798;29;20933;-74
2023/06/09 02:29:01;;;;;;;11.07;9.97;;;;;;;;;;4934102;29;20186;-74
2023/06/09 02:31:31;;;;;;;9.63;8.50;;;;;;;;;;4929673;29;20314;-73
2023/06/09 02:33:57;;;;;;;9.77;8.87;;;;;;;;;;4931271;29;20209;-73
2023/06/09 02:36:23;;;;;;;9.30;8.40;;;;;;;;;;4933661;29;20188;-73
2023/06/09 02:38:50;;;;;;;10.07;9.03;;;;;;;;;;4910082;29;20191;-73
2023/06/09 02:41:16;;;;;;;8.10;7.40;;;;;;;;;;4923083;29;20197;-73
2023/06/09 02:43:42;;;;;;;9.90;8.83;;;;;;;;;;4919517;29;20267;-74
2023/06/09 02:46:09;;;;;;;10.17;9.17;;;;;;;;;;4943143;29;20210;-74
2023/06/09 02:48:36;;;;;;;11.23;10.00;;;;;;;;;;4923244;29;20197;-73
2023/06/09 02:51:02;;;;;;;10.97;9.73;;;;;;;;;;4916518;29;20541;-73
2023/06/09 02:53:28;;;;;;;10.57;9.50;;;;;;;;;;4927930;29;20229;-74
2023/06/09 02:55:56;;;;;;;10.03;8.80;;;;;;;;;;4926667;29;20206;-73
2023/06/09 02:58:27;;;;;;;11.10;10.10;;;;;;;;;;4906483;29;20198;-74
2023/06/09 03:00:55;;;;;;;10.37;9.23;;;;;;;;;;4925003;29;20219;-73
2023/06/09 03:03:22;;;;;;;9.97;9.07;;;;;;;;;;4894205;29;20210;-79
2023/06/09 03:05:49;;;;;;;10.80;9.40;;;;;;;;;;4924021;29;20257;-77
2023/06/09 03:08:16;;;;;;;9.87;8.97;;;;;;;;;;4926898;29;20245;-76
2023/06/09 03:10:43;;;;;;;9.33;8.53;;;;;;;;;;4913925;29;20234;-77
2023/06/09 03:13:11;;;;;;;10.63;9.63;;;;;;;;;;4921854;29;20238;-81
2023/06/09 03:15:42;;;;;;;10.43;8.87;;;;;;;;;;4917758;29;20182;-76
2023/06/09 03:18:11;;;;;;;10.73;9.73;;;;;;;;;;4931211;29;20189;-74
2023/06/09 03:20:38;;;;;;;11.40;10.23;;;;;;;;;;4928709;29;20221;-75
2023/06/09 03:23:08;;;;;;;10.83;9.80;;;;;;;;;;4932253;29;20277;-78
2023/06/09 03:25:35;;;;;;;10.50;9.50;;;;;;;;;;4936963;29;20273;-78
2023/06/09 03:28:02;;;;;;;12.20;10.90;;;;;;;;;;4930791;29;20270;-78
2023/06/09 03:30:29;;;;;;;9.87;8.97;;;;;;;;;;4886826;29;20309;-76
2023/06/09 03:32:55;;;;;;;11.10;10.00;;;;;;;;;;4934958;29;20217;-74
2023/06/09 03:35:22;;;;;;;9.77;8.80;;;;;;;;;;4911066;29;20183;-77
2023/06/09 03:37:48;;;;;;;10.87;9.67;;;;;;;;;;4922113;29;20189;-75
2023/06/09 03:40:15;;;;;;;10.17;9.27;;;;;;;;;;4909356;29;20202;-75
2023/06/09 03:42:42;;;;;;;10.83;9.83;;;;;;;;;;4933547;29;20549;-77
2023/06/09 03:45:08;;;;;;;11.13;10.03;;;;;;;;;;4933642;29;20193;-76
2023/06/09 03:47:35;;;;;;;11.50;10.30;;;;;;;;;;4915064;29;20302;-75
2023/06/09 03:50:02;;;;;;;11.37;10.37;;;;;;;;;;4913643;29;20224;-76
2023/06/09 03:52:30;;;;;;;11.73;10.53;;;;;;;;;;4917407;29;20217;-76
2023/06/09 03:54:58;;;;;;;10.60;9.50;;;;;;;;;;4916221;29;20190;-77
2023/06/09 03:57:24;;;;;;;11.10;10.10;;;;;;;;;;4931962;29;20178;-77
2023/06/09 03:59:50;;;;;;;11.17;9.97;;;;;;;;;;4924318;29;20304;-77
2023/06/09 04:02:18;;;;;;;11.30;10.30;;;;;;;;;;4920357;29;20195;-76
2023/06/09 04:04:44;;;;;;;10.87;9.87;;;;;;;;;;4914203;29;20195;-76
2023/06/09 04:07:11;;;;;;;11.87;10.53;;;;;;;;;;4931373;29;20717;-77
2023/06/09 04:09:38;;;;;;;11.37;10.33;;;;;;;;;;4929922;29;20269;-77
2023/06/09 04:12:05;;;;;;;12.67;10.43;;;;;;;;;;4928164;29;20241;-76
2023/06/09 04:14:31;;;;;;;12.30;11.20;;;;;;;;;;4906291;29;20282;-77
2023/06/09 04:16:58;;;;;;;11.73;10.50;;;;;;;;;;4917371;29;20190;-77
2023/06/09 04:19:25;;;;;;;11.10;10.10;;;;;;;;;;4921579;29;20539;-77
2023/06/09 04:21:51;;;;;;;11.67;10.47;;;;;;;;;;4934005;29;20245;-77
2023/06/09 04:24:19;;;;;;;12.87;11.60;;;;;;;;;;4920254;29;20188;-77
2023/06/09 04:26:48;;;;;;;13.33;11.43;;;;;;;;;;4921577;29;20205;-77
2023/06/09 04:29:15;;;;;;;16.20;13.37;;;;;;;;;;4936044;29;20245;-76
2023/06/09 04:31:44;;;;;;;16.30;13.83;;;;;;;;;;4920577;29;20219;-77
2023/06/09 04:34:12;;;;;;;14.07;12.57;;;;;;;;;;4933939;29;20193;-77
2023/06/09 04:36:44;;;;;;;12.67;11.37;;;;;;;;;;4934089;29;20182;-77
2023/06/09 04:39:13;;;;;;;11.87;10.63;;;;;;;;;;4924629;29;20182;-77
2023/06/09 04:41:39;;;;;;;12.27;10.87;;;;;;;;;;4932805;29;20213;-77
2023/06/09 04:44:06;;;;;;;12.87;11.67;;;;;;;;;;4903680;29;20610;-77
2023/06/09 04:46:37;;;;;;;16.33;12.80;;;;;;;;;;4926750;29;20182;-77
2023/06/09 04:49:09;;;;;;;14.60;12.40;;;;;;;;;;4913632;29;20186;-77
2023/06/09 04:51:48;;;;;;;13.93;11.60;;;;;;;;;;4953651;29;20205;-77
2023/06/09 04:54:25;;;;;;;13.63;12.23;;;;;;;;;;4902779;29;20214;-77
2023/06/09 04:56:52;;;;;;;13.10;11.90;;;;;;;;;;4924166;29;20221;-77
2023/06/09 04:59:20;;;;;;;13.50;12.20;;;;;;;;;;4933179;29;20179;-77
2023/06/09 05:01:47;;;;;;;12.47;11.30;;;;;;;;;;4921590;29;20642;-77
2023/06/09 05:04:14;;;;;;;13.63;12.33;;;;;;;;;;4927995;29;20190;-77
2023/06/09 05:06:42;;;;;;;12.97;11.73;;;;;;;;;;4928955;29;20190;-76
2023/06/09 05:09:08;;;;;;;14.60;12.60;;;;;;;;;;4925474;29;20262;-77
2023/06/09 05:11:35;;;;;;;13.43;12.03;;;;;;;;;;4949304;29;20213;-77
2023/06/09 05:14:04;;;;;;;12.17;10.97;;;;;;;;;;4924348;29;20304;-77
2023/06/09 05:16:31;;;;;;;11.23;10.20;;;;;;;;;;4934152;29;20181;-77
2023/06/09 05:18:57;;;;;;;11.80;10.70;;;;;;;;;;4934752;29;20187;-77
2023/06/09 05:21:25;;;;;;;11.77;10.67;;;;;;;;;;4934396;29;20210;-77
2023/06/09 05:23:52;;;;;;;12.07;10.87;;;;;;;;;;4916306;29;20568;-77
2023/06/09 05:26:18;;;;;;;12.40;11.20;;;;;;;;;;4936256;29;20185;-77
2023/06/09 05:28:45;;;;;;;12.17;10.93;;;;;;;;;;4928684;29;20279;-77
2023/06/09 05:31:12;;;;;;;11.83;10.63;;;;;;;;;;4918733;29;20268;-77
2023/06/09 05:33:39;;;;;;;12.33;11.10;;;;;;;;;;4934869;29;20619;-77
2023/06/09 05:36:06;;;;;;;12.27;11.03;;;;;;;;;;4916669;29;20186;-77
2023/06/09 05:38:35;;;;;;;12.97;11.40;;;;;;;;;;4930987;29;20185;-75
2023/06/09 05:41:02;;;;;;;11.97;10.37;;;;;;;;;;4930693;29;20649;-77
2023/06/09 05:43:28;;;;;;;11.27;10.07;;;;;;;;;;4932459;29;20646;-77
2023/06/09 05:45:55;;;;;;;11.70;10.60;;;;;;;;;;4950544;29;20193;-77
2023/06/09 05:48:21;;;;;;;11.77;10.77;;;;;;;;;;4922939;29;20179;-76
2023/06/09 05:50:47;;;;;;;11.13;10.13;;;;;;;;;;4927845;29;20682;-77
2023/06/09 05:53:15;;;;;;;11.77;10.73;;;;;;;;;;4928666;29;20220;-76
2023/06/09 05:55:41;;;;;;;11.10;10.10;;;;;;;;;;4920284;29;20183;-78
2023/06/09 05:58:08;;;;;;;9.77;8.77;;;;;;;;;;4927756;29;20178;-76
2023/06/09 06:00:35;;;;;;;10.10;9.20;;;;;;;;;;4924226;29;20616;-77
2023/06/09 06:03:01;;;;;;;8.40;7.60;;;;;;;;;;4919551;29;20277;-77
2023/06/09 06:05:27;;;;;;;8.10;7.40;;;;;;;;;;4918428;29;20178;-77
2023/06/09 06:07:53;;;;;;;8.27;7.57;;;;;;;;;;4925100;29;20200;-77
2023/06/09 06:10:19;;;;;;;7.97;7.20;;;;;;;;;;4937127;29;20206;-78
2023/06/09 06:12:45;;;;;;;8.03;7.30;;;;;;;;;;4928820;29;20207;-77
2023/06/09 06:15:12;;;;;;;8.53;7.60;;;;;;;;;;4926757;29;20229;-77
2023/06/09 06:17:38;;;;;;;8.03;7.30;;;;;;;;;;4918604;29;20178;-77
2023/06/09 06:20:05;;;;;;;8.43;7.63;;;;;;;;;;4916612;29;20194;-78
2023/06/09 06:22:32;;;;;;;8.67;7.77;;;;;;;;;;4909593;29;20281;-77
2023/06/09 06:24:58;;;;;;;9.20;8.40;;;;;;;;;;4936131;29;20274;-77
2023/06/09 06:27:24;;;;;;;9.57;7.90;;;;;;;;;;4933199;29;20224;-77
2023/06/09 06:29:50;;;;;;;7.77;7.03;;;;;;;;;;4930017;29;20175;-77
2023/06/09 06:32:16;;;;;;;9.00;7.07;;;;;;;;;;4922301;29;20202;-77
2023/06/09 06:34:42;;;;;;;7.23;6.50;;;;;;;;;;4924467;29;20178;-77
2023/06/09 06:37:08;;;;;;;7.07;6.47;;;;;;;;;;4917123;29;20186;-77
2023/06/09 06:39:35;;;;;;;7.80;6.77;;;;;;;;;;4929089;29;20186;-77
2023/06/09 06:42:01;;;;;;;7.27;6.57;;;;;;;;;;4934166;29;20213;-77
2023/06/09 06:44:34;;;;;;;7.03;6.27;;;;;;;;;;4902427;29;20187;-77
2023/06/09 06:47:00;;;;;;;7.73;6.20;;;;;;;;;;4931215;29;20175;-77
2023/06/09 06:49:26;;;;;;;6.30;5.80;;;;;;;;;;4915646;29;20203;-78
2023/06/09 06:51:52;;;;;;;6.30;5.80;;;;;;;;;;4916855;29;20195;-77
2023/06/09 06:54:18;;;;;;;7.20;6.10;;;;;;;;;;4914982;29;20189;-77
2023/06/09 06:56:45;;;;;;;6.93;6.23;;;;;;;;;;4916263;29;20185;-77
2023/06/09 06:59:11;;;;;;;8.37;6.13;;;;;;;;;;4927481;29;20198;-77
2023/06/09 07:01:39;;;;;;;6.73;6.13;;;;;;;;;;4926934;29;20233;-78
2023/06/09 07:04:05;;;;;;;7.30;6.23;;;;;;;;;;4933218;29;20182;-77
2023/06/09 07:06:32;;;;;;;6.63;6.10;;;;;;;;;;4930392;29;20233;-77
2023/06/09 07:08:58;;;;;;;6.57;5.97;;;;;;;;;;4916591;29;20222;-77
2023/06/09 07:11:25;;;;;;;6.53;6.03;;;;;;;;;;4926528;29;20670;-78
2023/06/09 07:13:51;;;;;;;6.70;6.13;;;;;;;;;;4907241;29;20214;-78
2023/06/09 07:16:18;;;;;;;6.17;5.57;;;;;;;;;;4917533;29;20186;-78
2023/06/09 07:18:44;;;;;;;6.40;5.83;;;;;;;;;;4922997;29;20178;-77
2023/06/09 07:21:11;;;;;;;6.60;6.00;;;;;;;;;;4935036;29;20249;-77
2023/06/09 07:23:37;;;;;;;6.33;5.80;;;;;;;;;;4928275;29;20708;-78
2023/06/09 07:26:03;;;;;;;6.20;5.67;;;;;;;;;;4924548;29;20608;-76
2023/06/09 07:28:29;;;;;;;7.17;5.77;;;;;;;;;;4926497;29;20216;-78
2023/06/09 07:30:56;;;;;;;6.13;5.57;;;;;;;;;;4932879;29;20225;-77
2023/06/09 07:33:22;;;;;;;5.50;5.10;;;;;;;;;;4928088;29;20201;-78
2023/06/09 07:35:49;;;;;;;6.03;5.53;;;;;;;;;;4931628;29;20225;-78
2023/06/09 07:38:15;;;;;;;6.13;5.60;;;;;;;;;;4932281;29;20185;-76
2023/06/09 07:40:41;;;;;;;5.60;5.10;;;;;;;;;;4932217;29;20805;-78
2023/06/09 07:43:07;;;;;;;5.30;4.80;;;;;;;;;;4918516;29;20565;-78
2023/06/09 07:45:34;;;;;;;5.37;4.87;;;;;;;;;;4918246;29;20682;-78
2023/06/09 07:48:00;;;;;;;5.33;4.93;;;;;;;;;;4930747;29;20207;-78
2023/06/09 07:50:26;;;;;;;5.93;5.03;;;;;;;;;;4926568;29;20210;-78
2023/06/09 07:52:52;;;;;;;5.30;4.77;;;;;;;;;;4930007;29;20292;-77
2023/06/09 07:55:19;;;;;;;5.50;5.00;;;;;;;;;;4924982;29;20178;-78
2023/06/09 07:57:45;;;;;;;5.40;4.90;;;;;;;;;;4900257;29;20197;-78
2023/06/09 08:00:13;;;;;;;5.17;4.77;;;;;;;;;;4929930;29;20257;-77
2023/06/09 08:02:42;;;;;;;5.90;4.97;;;;;;;;;;4931453;29;20198;-77
2023/06/09 08:05:09;;;;;;;5.53;5.00;;;;;;;;;;4936400;29;20189;-77
2023/06/09 08:07:35;;;;;;;5.43;4.93;;;;;;;;;;4920397;29;20952;-78
2023/06/09 08:10:02;;;;;;;5.33;4.83;;;;;;;;;;4925481;29;20218;-77
2023/06/09 08:12:28;;;;;;;8.20;4.60;;;;;;;;;;4936623;29;20202;-77
2023/06/09 08:14:54;;;;;;;6.43;4.63;;;;;;;;;;4929389;29;20197;-77
2023/06/09 08:17:20;;;;;;;5.20;4.80;;;;;;;;;;4937202;29;20196;-77
2023/06/09 08:19:46;;;;;;;5.13;4.67;;;;;;;;;;4922592;29;20183;-78
2023/06/09 08:22:12;;;;;;;6.00;4.87;;;;;;;;;;4937642;29;20284;-78
2023/06/09 08:24:38;;;;;;;6.10;4.70;;;;;;;;;;4937524;29;20709;-78
2023/06/09 08:27:07;;;;;;;7.03;4.33;;;;;;;;;;4934766;29;20174;-78
2023/06/09 08:29:33;;;;;;;6.90;4.00;;;;;;;;;;4923613;29;20187;-78
2023/06/09 08:32:00;;;;;;;6.00;4.27;;;;;;;;;;4934246;29;20572;-78
2023/06/09 08:34:26;;;;;;;5.13;4.60;;;;;;;;;;4916853;29;20205;-78
2023/06/09 08:36:52;;;;;;;5.40;4.90;;;;;;;;;;4899767;29;20173;-78
2023/06/09 08:39:18;;;;;;;5.00;4.00;;;;;;;;;;4931799;29;20182;-78
2023/06/09 08:41:47;;;;;;;4.63;4.20;;;;;;;;;;4933198;29;20206;-78
2023/06/09 08:44:15;;;;;;;4.63;4.23;;;;;;;;;;4928230;29;20242;-78
2023/06/09 08:46:42;;;;;;;4.60;4.07;;;;;;;;;;4918404;29;20257;-77
2023/06/09 08:49:09;;;;;;;5.63;4.60;;;;;;;;;;4933588;29;20274;-78
2023/06/09 08:51:37;;;;;;;4.53;4.13;;;;;;;;;;4932628;29;20206;-78
2023/06/09 08:54:03;;;;;;;5.17;4.27;;;;;;;;;;4927468;29;20246;-78
2023/06/09 08:56:30;;;;;;;4.93;3.97;;;;;;;;;;4933377;29;20199;-78
2023/06/09 08:58:56;;;;;;;4.60;4.20;;;;;;;;;;4936603;29;20186;-78
2023/06/09 09:01:22;;;;;;;4.70;4.30;;;;;;;;;;4937505;29;20261;-78
2023/06/09 09:03:48;;;;;;;5.33;4.23;;;;;;;;;;4935575;29;20252;-78
2023/06/09 09:06:15;;;;;;;4.80;4.40;;;;;;;;;;4937619;29;20189;-78
2023/06/09 09:08:43;;;;;;;4.30;3.90;;;;;;;;;;4936798;29;20188;-79
2023/06/09 09:11:10;;;;;;;4.50;4.10;;;;;;;;;;4919824;29;20591;-79
2023/06/09 09:13:36;;;;;;;4.60;3.80;;;;;;;;;;4935253;29;20245;-76
2023/06/09 09:16:02;;;;;;;4.40;4.10;;;;;;;;;;4935620;29;20193;-76
2023/06/09 09:18:32;;;;;;;4.50;4.10;;;;;;;;;;4928579;29;20183;-79
2023/06/09 09:20:58;;;;;;;4.43;4.03;;;;;;;;;;4932170;29;20213;-78
2023/06/09 09:23:31;;;;;;;4.33;3.93;;;;;;;;;;4937262;29;20224;-79
2023/06/09 09:26:03;;;;;;;5.00;4.50;;;;;;;;;;4931371;29;20186;-80
2023/06/09 09:28:38;;;;;;;6.00;4.30;;;;;;;;;;4922513;29;20191;-79
2023/06/09 09:31:07;;;;;;;4.73;4.33;;;;;;;;;;4934471;29;20284;-77
2023/06/09 09:33:35;;;;;;;4.87;4.33;;;;;;;;;;4935549;28;20756;-81
2023/06/09 09:36:01;;;;;;;5.30;4.60;;;;;;;;;;4935382;29;20625;-78
2023/06/09 09:38:29;;;;;;;5.30;4.80;;;;;;;;;;4907958;29;20288;-75
2023/06/09 09:40:57;;;;;;;4.90;4.40;;;;;;;;;;4930047;29;20202;-75
2023/06/09 09:43:27;;;;;;;4.93;4.43;;;;;;;;;;4921157;29;20190;-76
2023/06/09 09:45:54;;;;;;;4.43;3.80;;;;;;;;;;4919073;29;20290;-78
2023/06/09 09:48:22;;;;;;;4.57;4.17;;;;;;;;;;4922911;29;20233;-76
2023/06/09 09:50:49;;;;;;;4.73;4.27;;;;;;;;;;4929363;29;20210;-75
2023/06/09 09:53:15;;;;;;;4.60;4.20;;;;;;;;;;4939578;29;20327;-77
2023/06/09 09:55:42;;;;;;;4.27;3.90;;;;;;;;;;4934401;29;20201;-76
2023/06/09 09:58:09;;;;;;;4.50;4.10;;;;;;;;;;4932013;29;20285;-76
2023/06/09 10:00:36;;;;;;;4.37;4.07;;;;;;;;;;4903108;29;20579;-74
2023/06/09 10:03:10;;;;;;;4.50;4.10;;;;;;;;;;4935734;29;20188;-76
2023/06/09 10:05:40;;;;;;;4.50;4.10;;;;;;;;;;4931917;29;20213;-75
2023/06/09 10:08:07;;;;;;;5.37;4.00;;;;;;;;;;4928494;29;20647;-75
2023/06/09 10:10:34;;;;;;;8.13;4.20;;;;;;;;;;4934340;29;20201;-74
2023/06/09 10:13:00;;;;;;;3.90;3.60;;;;;;;;;;4927652;29;20241;-74
2023/06/09 10:15:26;;;;;;;4.50;4.10;;;;;;;;;;4929170;29;20205;-75
2023/06/09 10:17:54;;;;;;;5.27;4.20;;;;;;;;;;4934794;29;20216;-75
2023/06/09 10:20:21;;;;;;;4.07;3.67;;;;;;;;;;4937271;29;20575;-74
2023/06/09 10:22:48;;;;;;;4.40;4.00;;;;;;;;;;4938316;29;20196;-74
2023/06/09 10:25:15;;;;;;;4.10;3.70;;;;;;;;;;4917224;29;20188;-75
2023/06/09 10:27:42;;;;;;;4.53;4.13;;;;;;;;;;4925781;29;20201;-77
2023/06/09 10:30:09;;;;;;;4.20;3.90;;;;;;;;;;4922185;29;20263;-77
2023/06/09 10:32:37;;;;;;;5.10;3.50;;;;;;;;;;4942692;29;20212;-77
2023/06/09 10:35:04;;;;;;;5.00;4.27;;;;;;;;;;4935719;29;20287;-77
2023/06/09 10:37:31;;;;;;;4.23;3.83;;;;;;;;;;4934158;29;20181;-77
2023/06/09 10:40:00;;;;;;;3.90;3.50;;;;;;;;;;4934688;29;20182;-77
2023/06/09 10:42:42;;;;;;;4.00;3.40;;;;;;;;;;4935809;29;20186;-77
2023/06/09 10:45:15;;;;;;;4.30;3.30;;;;;;;;;;4933839;29;20193;-78
2023/06/09 10:47:42;;;;;;;4.00;3.63;;;;;;;;;;4936040;29;20200;-77
2023/06/09 10:50:20;;;;;;;4.03;3.57;;;;;;;;;;4937070;29;20740;-78
2023/06/09 10:52:46;;;;;;;3.83;3.53;;;;;;;;;;4918039;29;20217;-77
2023/06/09 10:55:13;;;;;;;4.37;3.20;;;;;;;;;;4931786;29;20185;-77
2023/06/09 10:57:41;;;;;;;3.50;3.20;;;;;;;;;;4909562;29;20193;-77
2023/06/09 11:00:11;;;;;;;4.60;3.43;;;;;;;;;;4934700;29;20186;-78
2023/06/09 11:02:41;;;;;;;3.60;3.30;;;;;;;;;;4932537;29;20190;-77
2023/06/09 11:05:08;;;;;;;3.57;3.27;;;;;;;;;;4935287;29;20603;-77
2023/06/09 11:07:43;;;;;;;4.07;3.33;;;;;;;;;;4927854;29;20182;-77
2023/06/09 11:10:12;;;;;;;3.20;3.00;;;;;;;;;;4931737;29;20189;-77
2023/06/09 11:12:42;;;;;;;3.40;3.10;;;;;;;;;;4925550;29;20725;-77
2023/06/09 11:15:11;;;;;;;3.80;3.20;;;;;;;;;;4933209;29;20193;-77
2023/06/09 11:17:41;;;;;;;4.03;3.47;;;;;;;;;;4902967;29;20260;-77
2023/06/09 11:20:08;;;;;;;4.90;3.40;;;;;;;;;;4934221;29;20666;-77
2023/06/09 11:22:50;;;;;;;4.70;3.20;;;;;;;;;;4935589;29;20198;-77
2023/06/09 11:25:19;;;;;;;3.70;3.40;;;;;;;;;;4934753;29;20194;-77
2023/06/09 11:27:47;;;;;;;4.20;3.80;;;;;;;;;;4933804;29;20194;-77
2023/06/09 11:30:17;;;;;;;3.80;3.50;;;;;;;;;;4934902;29;20233;-77
2023/06/09 11:32:50;;;;;;;4.97;3.60;;;;;;;;;;4920944;29;20297;-77
2023/06/09 11:35:26;;;;;;;4.00;3.60;;;;;;;;;;4931036;29;20186;-77
2023/06/09 11:38:02;;;;;;;3.33;3.13;;;;;;;;;;4933371;29;20246;-78
2023/06/09 11:40:30;;;;;;;5.57;3.70;;;;;;;;;;4934781;29;20554;-77
2023/06/09 11:42:56;;;;;;;4.17;3.77;;;;;;;;;;4916629;29;20217;-77
2023/06/09 11:45:26;;;;;;;4.73;3.50;;;;;;;;;;4936684;28;20271;-77
2023/06/09 11:47:57;;;;;;;4.47;3.50;;;;;;;;;;4930618;29;20192;-77
2023/06/09 11:50:24;;;;;;;4.10;3.30;;;;;;;;;;4933261;29;20221;-77
2023/06/09 11:53:02;;;;;;;4.20;3.80;;;;;;;;;;4933706;29;20210;-78
2023/06/09 11:55:31;;;;;;;4.00;3.57;;;;;;;;;;4941951;29;20315;-77
2023/06/09 11:57:57;;;;;;;3.83;3.53;;;;;;;;;;4935234;29;20189;-78
2023/06/09 12:00:28;;;;;;;3.40;3.10;;;;;;;;;;4928733;28;20231;-78
2023/06/09 12:02:55;;;;;;;3.80;3.50;;;;;;;;;;4932934;29;20717;-77
2023/06/09 12:05:23;;;;;;;4.10;3.70;;;;;;;;;;4937422;29;20219;-77
2023/06/09 12:07:50;;;;;;;3.63;3.03;;;;;;;;;;4933127;29;20184;-78
2023/06/09 12:10:20;;;;;;;3.83;3.40;;;;;;;;;;4938281;29;20215;-77
2023/06/09 12:12:47;;;;;;;4.10;3.80;;;;;;;;;;4946695;28;20193;-77
2023/06/09 12:15:15;;;;;;;3.80;3.50;;;;;;;;;;4941189;29;20233;-78
2023/06/09 12:17:41;;;;;;;4.47;3.57;;;;;;;;;;4912211;29;20181;-78
2023/06/09 12:20:24;;;;;;;3.50;3.20;;;;;;;;;;4931134;29;20236;-78
2023/06/09 12:22:51;;;;;;;4.03;3.73;;;;;;;;;;4939405;29;20192;-78
2023/06/09 12:25:24;;;;;;;6.57;3.50;;;;;;;;;;4934411;28;20193;-78
2023/06/09 12:27:51;;;;;;;3.50;3.20;;;;;;;;;;4932091;29;20680;-78
2023/06/09 12:30:33;;;;;;;4.27;3.53;;;;;;;;;;4933931;29;20311;-78
2023/06/09 12:33:03;;;;;;;4.67;4.27;;;;;;;;;;4943674;29;20853;-78
2023/06/09 12:35:37;;;;;;;4.30;3.20;;;;;;;;;;4939961;28;20190;-78
2023/06/09 12:38:29;;;;;;;3.50;3.20;;;;;;;;;;4933872;29;20223;-78
2023/06/09 12:40:58;;;;;;;3.90;3.60;;;;;;;;;;4929103;29;20226;-78
2023/06/09 12:43:25;;;;;;;3.77;3.40;;;;;;;;;;4936289;29;20831;-78
2023/06/09 12:45:55;;;;;;;4.33;3.10;;;;;;;;;;4937053;29;20217;-78
2023/06/09 12:48:22;;;;;;;4.70;3.67;;;;;;;;;;4941112;29;20189;-78
2023/06/09 12:50:48;;;;;;;4.03;3.60;;;;;;;;;;4953770;29;20207;-78
2023/06/09 12:53:15;;;;;;;4.07;3.63;;;;;;;;;;4942987;29;20305;-78
2023/06/09 12:55:41;;;;;;;4.40;4.00;;;;;;;;;;4951981;29;20282;-78
2023/06/09 12:58:09;;;;;;;4.13;3.57;;;;;;;;;;4952730;28;20181;-78
2023/06/09 13:00:36;;;;;;;3.90;3.60;;;;;;;;;;4937748;29;20360;-78
2023/06/09 13:03:04;;;;;;;3.77;3.40;;;;;;;;;;4947101;29;20212;-78
2023/06/09 13:05:33;;;;;;;3.90;3.60;;;;;;;;;;4955876;29;20192;-78
2023/06/09 13:07:59;;;;;;;3.57;3.20;;;;;;;;;;4937765;28;20469;-78
2023/06/09 13:10:26;;;;;;;3.70;3.40;;;;;;;;;;4946579;29;20213;-78
2023/06/09 13:12:52;;;;;;;3.90;3.50;;;;;;;;;;4926566;29;20304;-78
2023/06/09 13:15:22;;;;;;;3.53;3.23;;;;;;;;;;4941699;29;20235;-79
2023/06/09 13:17:52;;;;;;;3.57;3.27;;;;;;;;;;4936948;29;20643;-78
2023/06/09 13:20:19;;;;;;;3.70;3.40;;;;;;;;;;4946724;28;20235;-78
2023/06/09 13:22:45;;;;;;;3.80;3.50;;;;;;;;;;4928489;29;20222;-78
2023/06/09 13:25:12;;;;;;;3.50;3.20;;;;;;;;;;4947854;29;20595;-78
2023/06/09 13:27:40;;;;;;;4.07;3.47;;;;;;;;;;4937446;29;20184;-78
2023/06/09 13:30:07;;;;;;;3.37;3.07;;;;;;;;;;4936255;29;20245;-78
2023/06/09 13:32:33;;;;;;;3.50;3.20;;;;;;;;;;4936407;29;20225;-78
2023/06/09 13:34:59;;;;;;;3.70;3.30;;;;;;;;;;4936856;29;20223;-78
2023/06/09 13:37:26;;;;;;;2.90;2.70;;;;;;;;;;4936527;29;20184;-78
2023/06/09 13:39:52;;;;;;;3.83;3.53;;;;;;;;;;4953500;29;20188;-79
2023/06/09 13:42:19;;;;;;;3.60;3.30;;;;;;;;;;4922494;28;20193;-79
2023/06/09 13:44:45;;;;;;;3.73;3.43;;;;;;;;;;4943861;29;20182;-79
2023/06/09 13:47:11;;;;;;;4.07;3.45;;;;;;;;;;4944773;29;20323;-78
2023/06/09 13:49:37;;;;;;;3.20;3.00;;;;;;;;;;4932899;29;20196;-78
2023/06/09 13:52:04;;;;;;;3.67;3.38;;;;;;;;;;4934761;29;20208;-79
2023/06/09 13:54:30;;;;;;;3.53;3.33;;;;;;;;;;4942065;29;20189;-79
2023/06/09 13:56:56;;;;;;;3.30;3.03;;;;;;;;;;4954215;28;20177;-79
2023/06/09 13:59:22;;;;;;;3.75;3.10;;;;;;;;;;4939944;28;20228;-79
2023/06/09 14:01:49;;;;;;;3.42;3.13;;;;;;;;;;4919695;29;20206;-79
2023/06/09 14:04:15;;;;;;;3.33;3.03;;;;;;;;;;4935849;29;20181;-79
2023/06/09 14:06:42;;;;;;;3.55;3.22;;;;;;;;;;4935858;29;20224;-79
2023/06/09 14:09:08;;;;;;;3.63;3.30;;;;;;;;;;4934517;29;20212;-79
2023/06/09 14:11:35;;;;;;;3.33;3.13;;;;;;;;;;4935633;29;20233;-78
2023/06/09 14:14:01;;;;;;;3.20;3.00;;;;;;;;;;4949563;29;20260;-78
2023/06/09 14:16:27;;;;;;;3.72;3.08;;;;;;;;;;4931311;29;20193;-78
2023/06/09 14:18:54;;;;;;;3.20;3.00;;;;;;;;;;4932128;29;20230;-78
2023/06/09 14:21:20;;;;;;;3.38;3.03;;;;;;;;;;4943863;29;20554;-78
2023/06/09 14:23:46;;;;;;;5.10;3.13;;;;;;;;;;4925633;29;20203;-78
2023/06/09 14:26:14;;;;;;;3.40;3.00;;;;;;;;;;4922867;29;20189;-78
2023/06/09 14:28:41;;;;;;;3.53;3.20;;;;;;;;;;4942387;29;20207;-79
2023/06/09 14:31:07;;;;;;;4.03;3.47;;;;;;;;;;4933162;29;20225;-78
2023/06/09 14:33:34;;;;;;;3.40;3.10;;;;;;;;;;4933785;29;20301;-78
2023/06/09 14:36:01;;;;;;;4.00;3.60;;;;;;;;;;4934917;29;20590;-78
2023/06/09 14:38:28;;;;;;;4.93;3.50;;;;;;;;;;4941232;29;20668;-78
2023/06/09 14:40:54;;;;;;;4.03;3.60;;;;;;;;;;4951690;29;20328;-77